Time;durP1;ratioP1;P1;durP2;ratioP2;P2;SDS_P1;SDS_P2;PMS_P1;PMS_P2;Temp;Humidity;BMP_temperature;BMP_pressure;BME280_temperature;BME280_humidity;BME280_pressure;Samples;Min_cycle;Max_cycle;Signal;HPM_P1;HPM_P2
2022/11/23 05:32:15;;;;;;;1.98;1.27;;;11.20;88.90;;;;;;4987295;23;20066;-77
2022/11/23 05:34:41;;;;;;;2.05;1.40;;;11.30;88.80;;;;;;4849555;29;20027;-81
2022/11/23 05:37:08;;;;;;;3.90;1.48;;;11.30;88.70;;;;;;4850767;28;20830;-80
2022/11/23 05:39:35;;;;;;;2.63;1.67;;;11.40;88.70;;;;;;4847183;29;20071;-76
2022/11/23 05:42:01;;;;;;;2.25;1.63;;;11.40;88.70;;;;;;4897286;28;20115;-84
2022/11/23 05:44:26;;;;;;;3.72;1.40;;;11.40;88.70;;;;;;4956948;29;20103;-84
2022/11/23 05:46:56;;;;;;;4.38;1.80;;;11.50;88.60;;;;;;4956870;29;20053;-81
2022/11/23 05:49:22;;;;;;;;;;;11.50;88.70;;;;;;4957444;28;20038;-79
2022/11/23 05:51:48;;;;;;;6.65;2.00;;;11.50;88.70;;;;;;4956447;29;19907;-77
2022/11/23 05:54:13;;;;;;;3.95;1.60;;;11.50;88.80;;;;;;4956567;29;20055;-81
2022/11/23 05:56:39;;;;;;;3.55;1.85;;;11.50;88.80;;;;;;4955761;29;20035;-80
2022/11/23 05:59:05;;;;;;;3.35;2.05;;;11.60;88.80;;;;;;4956420;29;20051;-85
2022/11/23 06:01:32;;;;;;;3.65;1.70;;;11.60;88.80;;;;;;4954604;29;20038;-80
2022/11/23 06:04:22;;;;;;;4.38;1.98;;;11.60;88.60;;;;;;4954054;29;20066;-79
2022/11/23 06:06:48;;;;;;;1.83;1.40;;;11.70;88.70;;;;;;4956785;28;20546;-78
2022/11/23 06:09:13;;;;;;;5.18;2.53;;;11.70;88.60;;;;;;4937208;29;20085;-79
2022/11/23 06:11:39;;;;;;;4.43;1.83;;;11.70;88.60;;;;;;4955477;29;20114;-78
2022/11/23 06:14:05;;;;;;;3.60;2.35;;;11.70;88.60;;;;;;4955934;29;20040;-78
2022/11/23 06:16:31;;;;;;;8.20;2.53;;;11.80;88.60;;;;;;4957361;28;20042;-78
2022/11/23 06:18:56;;;;;;;8.30;2.17;;;11.80;88.60;;;;;;4957120;28;20027;-78
2022/11/23 06:21:22;;;;;;;6.43;2.50;;;11.80;88.60;;;;;;4952079;29;20031;-78
2022/11/23 06:23:47;;;;;;;5.82;2.20;;;11.80;88.60;;;;;;4956347;28;20978;-77
2022/11/23 06:26:13;;;;;;;4.95;2.20;;;11.80;88.70;;;;;;4957739;28;20051;-79
2022/11/23 06:28:40;;;;;;;6.05;1.80;;;11.80;88.60;;;;;;4954363;29;20023;-79
2022/11/23 06:31:06;;;;;;;7.78;2.67;;;11.90;88.70;;;;;;4954801;28;20039;-78
2022/11/23 06:33:35;;;;;;;3.50;2.30;;;11.90;88.80;;;;;;4953785;28;20410;-78
2022/11/23 06:36:02;;;;;;;3.47;1.55;;;11.90;89.00;;;;;;4961233;28;20087;-79
2022/11/23 06:38:28;;;;;;;6.63;2.28;;;11.90;89.20;;;;;;4956309;28;20030;-78
2022/11/23 06:40:58;;;;;;;3.97;2.40;;;11.90;89.30;;;;;;4945961;28;20074;-78
2022/11/23 06:43:24;;;;;;;8.05;2.05;;;12.00;89.40;;;;;;4937786;29;20023;-78
2022/11/23 06:45:49;;;;;;;4.22;1.85;;;12.00;89.40;;;;;;4937746;29;20503;-79
2022/11/23 06:48:15;;;;;;;5.93;2.08;;;12.00;89.30;;;;;;4951352;29;20643;-80
2022/11/23 06:50:40;;;;;;;6.78;1.67;;;12.10;89.30;;;;;;4957021;28;20054;-78
2022/11/23 06:53:06;;;;;;;6.35;1.35;;;12.20;89.20;;;;;;4955278;28;20038;-78
2022/11/23 06:55:32;;;;;;;8.32;2.25;;;12.20;89.10;;;;;;4960334;29;20119;-79
2022/11/23 06:57:58;;;;;;;6.60;1.70;;;12.20;89.00;;;;;;4959994;28;20038;-78
2022/11/23 07:00:24;;;;;;;5.28;1.75;;;12.20;89.10;;;;;;4958968;29;20055;-78
2022/11/23 07:02:54;;;;;;;8.13;1.55;;;12.20;88.90;;;;;;4959775;28;20066;-78
2022/11/23 07:05:20;;;;;;;5.20;2.10;;;12.20;88.90;;;;;;4959318;29;20062;-78
2022/11/23 07:07:46;;;;;;;3.72;1.35;;;12.30;88.80;;;;;;4959058;29;20078;-79
2022/11/23 07:10:12;;;;;;;5.18;1.98;;;12.20;88.80;;;;;;4958959;29;20399;-79
2022/11/23 07:12:41;;;;;;;6.38;2.33;;;12.30;88.70;;;;;;4954545;28;20042;-78
2022/11/23 07:15:07;;;;;;;6.32;2.20;;;12.30;88.70;;;;;;4940998;29;20042;-79
2022/11/23 07:17:40;;;;;;;4.90;1.42;;;12.30;88.80;;;;;;4941131;29;20115;-78
2022/11/23 07:20:08;;;;;;;4.40;2.00;;;12.30;88.70;;;;;;4958435;29;20035;-78
2022/11/23 07:22:34;;;;;;;5.82;1.60;;;12.30;88.70;;;;;;4960021;28;20394;-78
2022/11/23 07:24:59;;;;;;;5.35;1.23;;;12.20;88.60;;;;;;4942824;29;20117;-79
2022/11/23 07:27:25;;;;;;;5.47;1.48;;;12.30;88.60;;;;;;4940795;29;20526;-79
2022/11/23 07:29:53;;;;;;;6.00;1.30;;;12.20;88.50;;;;;;4951667;29;20468;-78
2022/11/23 07:32:19;;;;;;;6.53;1.30;;;12.20;88.40;;;;;;4959915;28;20055;-78
2022/11/23 07:34:44;;;;;;;8.45;1.67;;;12.20;88.50;;;;;;4959752;28;20028;-79
2022/11/23 07:37:10;;;;;;;4.28;1.50;;;12.20;88.50;;;;;;4959312;28;20035;-79
2022/11/23 07:39:36;;;;;;;6.78;2.03;;;12.20;88.60;;;;;;4960020;28;20732;-78
2022/11/23 07:42:01;;;;;;;7.93;1.95;;;12.20;88.60;;;;;;4959839;28;20086;-78
2022/11/23 07:44:27;;;;;;;6.68;1.60;;;12.20;88.50;;;;;;4959680;28;20098;-79
2022/11/23 07:46:53;;;;;;;4.82;1.80;;;12.20;88.40;;;;;;4958152;29;20098;-78
2022/11/23 07:49:19;;;;;;;9.15;1.50;;;12.20;88.40;;;;;;4959535;28;20407;-79
2022/11/23 07:51:44;;;;;;;4.50;1.40;;;12.20;88.30;;;;;;4959171;28;20107;-78
2022/11/23 07:54:10;;;;;;;6.10;1.55;;;12.20;88.20;;;;;;4958450;29;20042;-78
2022/11/23 07:56:35;;;;;;;8.75;1.65;;;12.20;88.20;;;;;;4958938;29;20384;-78
2022/11/23 07:59:01;;;;;;;25.75;4.28;;;12.20;88.10;;;;;;4958015;29;20046;-78
2022/11/23 08:01:27;;;;;;;29.25;3.92;;;12.20;88.10;;;;;;4959442;28;20028;-78
2022/11/23 08:03:52;;;;;;;10.57;3.00;;;12.30;87.90;;;;;;4959253;28;20087;-78
2022/11/23 08:06:18;;;;;;;8.50;1.98;;;12.30;87.80;;;;;;4958722;28;20020;-78
2022/11/23 08:08:44;;;;;;;10.65;2.03;;;12.40;87.70;;;;;;4959187;28;20843;-78
2022/11/23 08:11:13;;;;;;;12.82;2.33;;;12.50;87.60;;;;;;4958014;29;20190;-79
2022/11/23 08:13:39;;;;;;;10.18;2.90;;;12.50;87.50;;;;;;4957460;29;20054;-79
2022/11/23 08:16:05;;;;;;;10.15;3.88;;;12.50;87.30;;;;;;4959091;28;20106;-78
2022/11/23 08:18:31;;;;;;;4.85;2.08;;;12.50;87.30;;;;;;4959104;28;20102;-78
2022/11/23 08:20:59;;;;;;;3.38;1.48;;;12.50;87.20;;;;;;4954279;29;20062;-78
2022/11/23 08:23:25;;;;;;;6.50;1.27;;;12.50;87.20;;;;;;4939806;29;20567;-79
2022/11/23 08:25:50;;;;;;;9.55;1.48;;;12.50;87.00;;;;;;4946699;29;20050;-79
2022/11/23 08:28:17;;;;;;;4.18;1.60;;;12.50;86.70;;;;;;4958888;28;20035;-79
2022/11/23 08:30:43;;;;;;;9.65;1.58;;;12.60;86.60;;;;;;4958669;28;20510;-79
2022/11/23 08:33:09;;;;;;;8.52;1.95;;;12.50;86.60;;;;;;4957548;29;20043;-79
2022/11/23 08:35:36;;;;;;;5.72;1.67;;;12.50;86.40;;;;;;4958351;28;20035;-78
2022/11/23 08:38:06;;;;;;;4.60;1.52;;;12.40;86.40;;;;;;4957554;29;20031;-78
2022/11/23 08:40:32;;;;;;;3.03;1.30;;;12.30;86.30;;;;;;4952475;29;20095;-78
2022/11/23 08:42:58;;;;;;;6.55;1.70;;;12.30;86.40;;;;;;4958563;28;20063;-78
2022/11/23 08:45:24;;;;;;;4.30;1.10;;;12.30;86.10;;;;;;4973069;28;20062;-79
2022/11/23 08:47:50;;;;;;;4.70;0.98;;;12.30;86.00;;;;;;4958345;28;20067;-79
2022/11/23 08:50:16;;;;;;;4.65;1.15;;;12.30;86.20;;;;;;4957859;29;20062;-79
2022/11/23 08:52:42;;;;;;;5.15;1.20;;;12.30;86.00;;;;;;4958295;28;20403;-79
2022/11/23 08:55:08;;;;;;;6.72;1.83;;;12.30;86.10;;;;;;4958312;29;20034;-76
2022/11/23 08:57:34;;;;;;;3.33;1.00;;;12.30;86.00;;;;;;4947160;28;20111;-78
2022/11/23 09:00:00;;;;;;;7.07;1.40;;;12.30;85.20;;;;;;4938904;29;20063;-77
2022/11/23 09:02:25;;;;;;;7.95;1.67;;;12.30;84.90;;;;;;4953838;29;20051;-77
2022/11/23 09:04:51;;;;;;;11.77;1.35;;;12.30;85.10;;;;;;4950320;29;20023;-77
2022/11/23 09:07:17;;;;;;;5.78;1.38;;;12.30;84.90;;;;;;4957073;29;20129;-77
2022/11/23 09:09:42;;;;;;;3.42;1.27;;;12.30;85.00;;;;;;4958033;28;20074;-77
2022/11/23 09:12:08;;;;;;;4.60;1.10;;;12.40;84.80;;;;;;4957462;28;20027;-77
2022/11/23 09:14:34;;;;;;;4.43;1.27;;;12.40;84.50;;;;;;4957857;28;20031;-77
2022/11/23 09:17:00;;;;;;;6.93;1.90;;;12.50;84.40;;;;;;4953630;28;20086;-77
2022/11/23 09:19:26;;;;;;;6.32;1.13;;;12.50;83.80;;;;;;4953455;29;20028;-78
2022/11/23 09:21:53;;;;;;;6.57;1.60;;;12.50;83.80;;;;;;4939308;29;20562;-77
2022/11/23 09:24:18;;;;;;;5.13;1.23;;;12.60;84.10;;;;;;4938591;29;20043;-77
2022/11/23 09:26:44;;;;;;;3.20;1.15;;;12.60;84.00;;;;;;4937612;29;20023;-77
2022/11/23 09:29:10;;;;;;;7.70;1.13;;;12.70;83.40;;;;;;4938621;29;20091;-77
2022/11/23 09:31:36;;;;;;;7.78;1.55;;;12.60;83.10;;;;;;4939145;29;20051;-77
2022/11/23 09:34:02;;;;;;;7.70;1.75;;;12.60;83.30;;;;;;4953570;29;20076;-77
2022/11/23 09:36:28;;;;;;;15.18;1.85;;;12.70;82.90;;;;;;4953476;29;20079;-77
2022/11/23 09:38:54;;;;;;;7.10;1.48;;;12.60;82.80;;;;;;4938955;29;20825;-78
2022/11/23 09:41:51;;;;;;;7.32;1.50;;;12.60;81.10;;;;;;4947713;29;20035;-77
2022/11/23 09:44:19;;;;;;;10.35;1.50;;;12.60;81.10;;;;;;4957510;29;20043;-77
2022/11/23 09:47:14;;;;;;;4.78;1.27;;;12.70;81.50;;;;;;4956538;29;20062;-78
2022/11/23 09:49:50;;;;;;;11.05;1.77;;;12.70;81.70;;;;;;4934377;29;20036;-78
2022/11/23 09:52:21;;;;;;;5.85;1.48;;;12.70;81.00;;;;;;4939663;29;20034;-78
2022/11/23 09:54:52;;;;;;;10.60;1.63;;;12.80;80.50;;;;;;4938408;29;20024;-77
2022/11/23 09:57:19;;;;;;;;;;;12.80;81.00;;;;;;4938908;29;20091;-77
2022/11/23 09:59:52;;;;;;;7.47;1.38;;;12.80;80.90;;;;;;4938255;29;20690;-77
2022/11/23 10:02:24;;;;;;;6.78;1.55;;;12.80;80.70;;;;;;4955634;29;20031;-78
2022/11/23 10:04:52;;;;;;;8.95;1.90;;;12.80;80.60;;;;;;4957457;28;20487;-78
2022/11/23 10:07:21;;;;;;;7.45;1.80;;;12.80;80.80;;;;;;4957249;28;20023;-78
2022/11/23 10:10:25;;;;;;;13.75;1.88;;;12.90;80.70;;;;;;4956385;29;20035;-78
2022/11/23 10:12:59;;;;;;;8.00;1.90;;;13.00;80.70;;;;;;4952178;29;20027;-78
2022/11/23 10:15:47;;;;;;;7.40;1.55;;;12.90;79.90;;;;;;4955988;29;20027;-78
2022/11/23 10:18:22;;;;;;;9.32;1.65;;;12.90;78.90;;;;;;4938733;28;20151;-78
2022/11/23 10:20:54;;;;;;;8.65;2.10;;;13.00;79.30;;;;;;4956950;28;20031;-78
2022/11/23 10:23:57;;;;;;;8.45;1.58;;;13.00;79.40;;;;;;4957350;28;20403;-79
2022/11/23 10:26:31;;;;;;;8.32;1.75;;;13.10;79.60;;;;;;4957366;29;20023;-78
2022/11/23 10:29:05;;;;;;;6.53;2.05;;;13.10;79.10;;;;;;4958310;28;20024;-79
2022/11/23 10:31:31;;;;;;;10.38;2.03;;;13.10;79.00;;;;;;4960459;28;20109;-78
2022/11/23 10:34:55;;;;;;;13.35;2.28;;;13.20;78.70;;;;;;4960922;28;20027;-78
2022/11/23 10:37:21;;;;;;;14.88;1.65;;;13.20;78.80;;;;;;4920362;29;20032;-79
2022/11/23 10:39:47;;;;;;;11.98;2.25;;;13.30;78.40;;;;;;4903899;29;20040;-78
2022/11/23 10:42:57;;;;;;;9.05;2.25;;;13.20;78.00;;;;;;4925740;29;20051;-78
2022/11/23 10:45:24;;;;;;;;;;;13.20;76.60;;;;;;4953777;29;20055;-78
2022/11/23 10:47:57;;;;;;;14.27;2.13;;;13.30;77.10;;;;;;4959426;29;19910;-78
2022/11/23 10:50:34;;;;;;;10.65;2.17;;;13.30;77.10;;;;;;4960140;28;20027;-78
2022/11/23 10:53:13;;;;;;;6.70;1.50;;;13.30;77.30;;;;;;4959530;29;20027;-79
2022/11/23 10:55:53;;;;;;;9.40;2.08;;;13.30;76.10;;;;;;4960504;28;20019;-79
2022/11/23 10:58:30;;;;;;;6.13;1.52;;;13.30;75.50;;;;;;4945110;28;20079;-79
2022/11/23 11:01:00;;;;;;;9.32;2.08;;;13.40;75.40;;;;;;4941149;29;20030;-79
2022/11/23 11:03:32;;;;;;;7.80;1.63;;;13.50;74.50;;;;;;4958508;29;20038;-78
2022/11/23 11:05:58;;;;;;;9.70;1.60;;;13.40;74.90;;;;;;4960414;28;20384;-79
2022/11/23 11:08:31;;;;;;;10.10;1.90;;;13.50;74.00;;;;;;4959873;28;20031;-79
2022/11/23 11:11:01;;;;;;;5.47;1.63;;;13.50;74.50;;;;;;4960340;28;20507;-79
2022/11/23 11:13:45;;;;;;;18.17;2.58;;;13.50;74.50;;;;;;4958505;29;20038;-79
2022/11/23 11:16:32;;;;;;;10.93;1.65;;;13.60;74.40;;;;;;4957983;29;20031;-78
2022/11/23 11:18:59;;;;;;;9.77;2.20;;;13.60;74.00;;;;;;4958327;29;20038;-79
2022/11/23 11:21:39;;;;;;;8.85;1.98;;;13.60;73.50;;;;;;4959702;28;20035;-79
2022/11/23 11:24:12;;;;;;;16.08;2.20;;;13.60;72.20;;;;;;4960059;28;20094;-79
2022/11/23 11:26:50;;;;;;;11.15;2.10;;;13.70;72.70;;;;;;4958829;29;20032;-80
2022/11/23 11:29:37;;;;;;;11.00;1.88;;;13.70;72.80;;;;;;4958409;29;20095;-79
2022/11/23 11:32:10;;;;;;;10.23;1.63;;;13.70;73.00;;;;;;4959631;28;20503;-79
2022/11/23 11:34:49;;;;;;;12.77;2.20;;;13.70;72.80;;;;;;4959845;28;20023;-79
2022/11/23 11:37:31;;;;;;;17.35;2.97;;;13.70;72.80;;;;;;4958546;28;20023;-80
2022/11/23 11:40:06;;;;;;;10.13;2.38;;;13.70;71.50;;;;;;4940120;29;20028;-78
2022/11/23 11:42:42;;;;;;;12.02;2.40;;;13.70;72.10;;;;;;4940493;29;20090;-79
2022/11/23 11:45:17;;;;;;;10.15;2.35;;;13.70;71.80;;;;;;4941063;29;20452;-78
2022/11/23 11:47:49;;;;;;;10.88;1.90;;;13.70;71.90;;;;;;4963392;28;20026;-78
2022/11/23 11:50:28;;;;;;;10.25;2.08;;;13.70;70.80;;;;;;4972374;28;20022;-79
2022/11/23 11:53:09;;;;;;;10.40;1.60;;;13.70;70.40;;;;;;4969402;28;20030;-78
2022/11/23 11:55:45;;;;;;;14.85;2.50;;;13.80;70.30;;;;;;4959086;28;20031;-79
2022/11/23 11:58:14;;;;;;;6.13;1.73;;;13.80;70.40;;;;;;4959350;28;20439;-79
2022/11/23 12:00:41;;;;;;;7.00;1.40;;;13.80;70.30;;;;;;4958779;28;20646;-79
2022/11/23 12:03:54;;;;;;;11.18;1.73;;;13.80;70.00;;;;;;4959590;28;20041;-78
2022/11/23 12:06:47;;;;;;;11.02;2.20;;;13.80;69.40;;;;;;4917823;29;20152;-79
2022/11/23 12:09:17;;;;;;;11.02;1.98;;;13.90;69.40;;;;;;4900075;29;20035;-80
2022/11/23 12:11:43;;;;;;;10.07;2.00;;;13.90;68.50;;;;;;4942773;29;20799;-79
2022/11/23 12:14:13;;;;;;;5.68;1.42;;;13.80;69.10;;;;;;4957247;29;20031;-77
2022/11/23 12:16:58;;;;;;;11.80;1.70;;;13.90;68.90;;;;;;4939840;29;20020;-79
2022/11/23 12:19:48;;;;;;;7.93;2.00;;;13.90;68.80;;;;;;4943102;29;20586;-78
2022/11/23 12:22:52;;;;;;;12.80;1.80;;;13.90;68.50;;;;;;4959170;28;20034;-78
2022/11/23 12:25:40;;;;;;;6.55;1.05;;;13.90;68.00;;;;;;4958376;29;20038;-79
2022/11/23 12:28:28;;;;;;;10.43;2.25;;;13.90;68.20;;;;;;4957620;29;20039;-78
2022/11/23 12:31:21;;;;;;;8.82;2.05;;;14.00;68.50;;;;;;4946010;29;20048;-78
2022/11/23 12:33:57;;;;;;;10.65;2.75;;;14.00;68.40;;;;;;4938491;29;20122;-78
2022/11/23 12:36:25;;;;;;;9.50;1.95;;;14.00;68.80;;;;;;4946335;28;20036;-78
2022/11/23 12:39:07;;;;;;;8.15;2.00;;;14.10;68.80;;;;;;4945418;29;20031;-78
2022/11/23 12:41:48;;;;;;;7.43;2.15;;;14.00;69.10;;;;;;4957314;29;20491;-78
2022/11/23 12:44:19;;;;;;;7.93;1.88;;;14.20;68.20;;;;;;4957598;29;20058;-78
2022/11/23 12:46:58;;;;;;;7.90;1.40;;;14.20;67.80;;;;;;4957354;29;20033;-78
2022/11/23 12:49:42;;;;;;;9.75;1.48;;;14.20;67.90;;;;;;4958047;28;20487;-78
2022/11/23 12:52:22;;;;;;;15.75;2.42;;;14.20;67.90;;;;;;4954809;28;20105;-79
2022/11/23 12:54:51;;;;;;;9.82;2.42;;;14.30;67.70;;;;;;4956606;29;20027;-78
2022/11/23 12:57:22;;;;;;;7.30;1.98;;;14.30;68.00;;;;;;4958333;28;20117;-79
2022/11/23 12:59:55;;;;;;;9.88;1.23;;;14.40;66.80;;;;;;4956905;29;20031;-79
2022/11/23 13:02:45;;;;;;;7.15;1.33;;;14.50;66.90;;;;;;4956961;29;20038;-79
2022/11/23 13:05:48;;;;;;;3.65;1.33;;;14.60;66.40;;;;;;4945700;29;20082;-79
2022/11/23 13:08:17;;;;;;;7.18;1.83;;;14.50;64.40;;;;;;4938944;29;20059;-78
2022/11/23 13:10:45;;;;;;;10.70;1.80;;;14.70;66.40;;;;;;4943886;29;20019;-80
2022/11/23 13:13:10;;;;;;;8.75;2.08;;;14.80;64.40;;;;;;4957508;29;20042;-79
2022/11/23 13:16:08;;;;;;;8.85;1.40;;;14.90;65.40;;;;;;4958067;28;20035;-79
2022/11/23 13:19:01;;;;;;;8.88;1.70;;;14.90;65.20;;;;;;4957296;28;20046;-80
2022/11/23 13:21:33;;;;;;;7.88;1.42;;;14.90;64.50;;;;;;4956837;29;20070;-79
2022/11/23 13:23:59;;;;;;;11.35;2.20;;;14.90;65.10;;;;;;4957764;28;20105;-79
2022/11/23 13:26:27;;;;;;;5.53;2.05;;;15.00;64.70;;;;;;4956307;28;20027;-79
2022/11/23 13:28:59;;;;;;;11.60;2.00;;;14.90;63.60;;;;;;4937336;29;20032;-79
2022/11/23 13:31:29;;;;;;;14.00;3.15;;;14.90;64.20;;;;;;4938761;29;20043;-78
2022/11/23 13:33:58;;;;;;;7.38;2.03;;;14.80;64.20;;;;;;4941021;29;20035;-78
2022/11/23 13:36:29;;;;;;;15.98;2.85;;;14.70;63.80;;;;;;4957778;28;20102;-78
2022/11/23 13:39:00;;;;;;;10.95;1.40;;;14.70;65.40;;;;;;4948044;29;20043;-77
2022/11/23 13:41:40;;;;;;;8.68;2.38;;;14.60;64.90;;;;;;4938602;29;20468;-79
2022/11/23 13:44:25;;;;;;;;;;;14.50;64.60;;;;;;4937325;29;20067;-79
2022/11/23 13:47:14;;;;;;;7.95;1.55;;;14.50;65.20;;;;;;4938527;29;19906;-79
2022/11/23 13:50:08;;;;;;;8.57;1.50;;;14.50;66.20;;;;;;4935980;29;20046;-79
2022/11/23 13:52:35;;;;;;;8.82;1.67;;;14.30;66.70;;;;;;4945052;29;20031;-79
2022/11/23 13:55:10;;;;;;;6.97;1.73;;;14.30;66.90;;;;;;4954475;28;20138;-78
2022/11/23 13:57:41;;;;;;;6.20;1.77;;;14.30;66.40;;;;;;4937002;29;20031;-79
2022/11/23 14:00:43;;;;;;;9.30;2.25;;;14.30;66.40;;;;;;4938210;29;20020;-80
2022/11/23 14:03:47;;;;;;;12.07;1.83;;;14.30;65.00;;;;;;4937842;29;20038;-79
2022/11/23 14:06:22;;;;;;;7.45;1.42;;;14.30;66.30;;;;;;4958680;29;20023;-79
2022/11/23 14:09:26;;;;;;;8.77;1.75;;;14.40;66.00;;;;;;4958894;29;20042;-80
2022/11/23 14:12:10;;;;;;;14.43;2.08;;;14.40;66.30;;;;;;4945189;29;20983;-79
2022/11/23 14:14:45;;;;;;;7.45;2.00;;;14.40;66.50;;;;;;4950353;29;20043;-78
2022/11/23 14:17:44;;;;;;;5.80;1.50;;;14.40;65.50;;;;;;4960404;29;20030;-78
2022/11/23 14:20:42;;;;;;;5.27;1.30;;;14.50;65.70;;;;;;4950828;29;20043;-79
2022/11/23 14:23:29;;;;;;;5.15;1.27;;;14.50;65.50;;;;;;4960803;29;20046;-79
2022/11/23 14:26:13;;;;;;;8.98;1.90;;;14.40;65.70;;;;;;4959463;29;20027;-79
2022/11/23 14:28:58;;;;;;;14.95;2.88;;;14.50;65.60;;;;;;4948363;29;20031;-80
2022/11/23 14:31:26;;;;;;;15.15;2.45;;;14.40;64.90;;;;;;4947354;29;20088;-79
2022/11/23 14:34:13;;;;;;;16.35;2.90;;;14.40;64.20;;;;;;4948373;29;20546;-79
2022/11/23 14:37:00;;;;;;;13.30;2.65;;;14.30;64.10;;;;;;4961038;28;20086;-79
2022/11/23 14:39:36;;;;;;;10.10;2.35;;;14.30;64.90;;;;;;4954005;29;20043;-79
2022/11/23 14:42:10;;;;;;;8.82;1.73;;;14.30;65.20;;;;;;4960597;28;20027;-79
2022/11/23 14:44:39;;;;;;;8.25;1.65;;;14.30;64.50;;;;;;4960020;28;20038;-79
2022/11/23 14:47:07;;;;;;;9.82;1.75;;;14.30;64.90;;;;;;4949947;29;20511;-79
2022/11/23 14:49:34;;;;;;;11.00;2.35;;;14.30;65.20;;;;;;4950135;29;20403;-78
2022/11/23 14:52:01;;;;;;;7.53;1.92;;;14.30;65.30;;;;;;4946654;29;20377;-79
2022/11/23 14:54:28;;;;;;;15.63;3.03;;;14.40;65.60;;;;;;4959308;28;20054;-79
2022/11/23 14:57:01;;;;;;;9.57;2.53;;;14.40;65.90;;;;;;4958063;29;20036;-78
2022/11/23 14:59:34;;;;;;;12.15;2.28;;;14.40;66.00;;;;;;4950905;28;20039;-78
2022/11/23 15:02:15;;;;;;;14.98;2.30;;;14.30;66.50;;;;;;4942311;29;20079;-77
2022/11/23 15:05:13;;;;;;;10.95;2.42;;;14.30;66.60;;;;;;4954585;29;20046;-78
2022/11/23 15:07:57;;;;;;;11.20;1.80;;;14.30;66.30;;;;;;4959237;29;20031;-79
2022/11/23 15:10:30;;;;;;;12.27;1.55;;;14.30;66.10;;;;;;4958073;29;20035;-79
2022/11/23 15:12:55;;;;;;;10.88;2.28;;;14.20;66.60;;;;;;4958704;28;20091;-78
2022/11/23 15:15:26;;;;;;;13.40;2.78;;;14.20;66.90;;;;;;4957496;28;20090;-78
2022/11/23 15:17:53;;;;;;;8.00;2.35;;;14.20;67.20;;;;;;4959630;28;20102;-77
2022/11/23 15:20:20;;;;;;;14.48;2.28;;;14.20;67.00;;;;;;4958846;29;20084;-79
2022/11/23 15:22:46;;;;;;;9.80;2.90;;;14.20;66.00;;;;;;4958709;29;20480;-79
2022/11/23 15:25:18;;;;;;;10.93;2.92;;;14.10;66.00;;;;;;4952721;29;20036;-77
2022/11/23 15:27:46;;;;;;;12.02;2.70;;;14.00;65.40;;;;;;4940786;29;20563;-78
2022/11/23 15:30:27;;;;;;;8.43;1.77;;;14.00;65.80;;;;;;4956328;28;20455;-78
2022/11/23 15:33:02;;;;;;;6.30;1.73;;;14.00;66.10;;;;;;4959314;28;20451;-78
2022/11/23 15:35:34;;;;;;;10.60;1.88;;;13.90;66.00;;;;;;4959281;28;20112;-77
2022/11/23 15:38:01;;;;;;;11.82;1.80;;;13.90;66.20;;;;;;4941088;28;20023;-78
2022/11/23 15:40:31;;;;;;;9.45;1.50;;;13.90;65.80;;;;;;4955873;29;20491;-78
2022/11/23 15:42:57;;;;;;;14.52;2.70;;;13.80;66.30;;;;;;4959781;28;20031;-77
2022/11/23 15:45:38;;;;;;;11.02;2.03;;;13.80;65.80;;;;;;4959155;28;20090;-77
2022/11/23 15:48:10;;;;;;;7.55;1.80;;;13.80;66.50;;;;;;4959510;29;20034;-77
2022/11/23 15:50:51;;;;;;;11.13;2.05;;;13.70;66.80;;;;;;4957298;29;20550;-77
2022/11/23 15:53:19;;;;;;;15.73;2.70;;;13.70;66.90;;;;;;4957525;28;20077;-79
2022/11/23 15:55:45;;;;;;;8.23;1.67;;;13.60;67.40;;;;;;4954284;28;20507;-80
2022/11/23 15:58:16;;;;;;;20.23;2.70;;;13.60;67.40;;;;;;4948607;29;20063;-77
2022/11/23 16:00:54;;;;;;;4.70;1.80;;;13.60;67.70;;;;;;4958548;28;20077;-77
2022/11/23 16:03:23;;;;;;;10.98;2.92;;;13.50;67.80;;;;;;4957531;29;20086;-76
2022/11/23 16:06:13;;;;;;;15.48;2.53;;;13.50;67.80;;;;;;4940100;29;20032;-77
2022/11/23 16:08:40;;;;;;;8.43;1.77;;;13.50;68.00;;;;;;4951928;29;20051;-76
2022/11/23 16:11:27;;;;;;;11.73;2.20;;;13.40;68.20;;;;;;4947078;29;20042;-79
2022/11/23 16:14:19;;;;;;;15.13;2.33;;;13.40;68.40;;;;;;4957300;29;20439;-78
2022/11/23 16:17:16;;;;;;;12.35;2.55;;;13.40;68.20;;;;;;4948371;28;20035;-78
2022/11/23 16:19:52;;;;;;;12.23;2.75;;;13.40;68.40;;;;;;4938512;29;20031;-78
2022/11/23 16:22:25;;;;;;;9.65;2.10;;;13.30;68.40;;;;;;4948958;29;20398;-78
2022/11/23 16:24:59;;;;;;;10.68;3.03;;;13.30;68.70;;;;;;4957784;28;20043;-77
2022/11/23 16:27:25;;;;;;;11.85;3.70;;;13.30;68.70;;;;;;4952647;28;20087;-77
2022/11/23 16:29:52;;;;;;;12.05;2.55;;;13.30;68.80;;;;;;4957839;29;20490;-78
2022/11/23 16:32:29;;;;;;;11.63;2.30;;;13.30;68.60;;;;;;4957765;28;20048;-77
2022/11/23 16:35:08;;;;;;;6.63;2.38;;;13.20;68.70;;;;;;4954155;28;20118;-77
2022/11/23 16:37:33;;;;;;;5.43;1.35;;;13.20;68.40;;;;;;4955549;29;20070;-77
2022/11/23 16:39:59;;;;;;;6.75;1.50;;;13.10;67.90;;;;;;4957569;29;20043;-78
2022/11/23 16:42:28;;;;;;;12.02;1.80;;;13.10;67.80;;;;;;4957293;29;20042;-78
2022/11/23 16:44:54;;;;;;;15.68;2.45;;;13.10;67.60;;;;;;4940916;29;20033;-77
2022/11/23 16:47:22;;;;;;;9.95;2.40;;;13.10;67.50;;;;;;4939522;29;20492;-78
2022/11/23 16:49:48;;;;;;;10.60;2.83;;;13.00;67.50;;;;;;4955913;29;20032;-77
2022/11/23 16:52:13;;;;;;;10.90;2.20;;;13.00;67.70;;;;;;4942088;29;20526;-78
2022/11/23 16:54:39;;;;;;;8.45;2.22;;;13.00;68.10;;;;;;4957615;28;20891;-79
2022/11/23 16:57:05;;;;;;;15.13;2.17;;;13.00;68.20;;;;;;4956611;29;20100;-77
2022/11/23 16:59:34;;;;;;;8.07;2.40;;;13.00;68.50;;;;;;4955231;29;20406;-77
2022/11/23 17:01:59;;;;;;;12.32;2.45;;;13.00;68.90;;;;;;4953696;28;20070;-77
2022/11/23 17:04:25;;;;;;;15.88;3.17;;;13.00;69.10;;;;;;4954753;29;20059;-77
2022/11/23 17:06:51;;;;;;;13.30;2.80;;;13.00;69.40;;;;;;4953519;29;20054;-76
2022/11/23 17:09:16;;;;;;;15.68;2.45;;;12.90;70.10;;;;;;4960352;28;21340;-76
2022/11/23 17:11:46;;;;;;;14.73;2.72;;;12.90;70.20;;;;;;4964523;28;20025;-77
2022/11/23 17:14:15;;;;;;;13.57;2.30;;;12.90;70.60;;;;;;4957381;28;20106;-76
2022/11/23 17:16:41;;;;;;;15.98;2.80;;;12.80;70.60;;;;;;4957435;28;20030;-77
2022/11/23 17:19:25;;;;;;;19.92;2.85;;;12.80;71.10;;;;;;4959496;28;20067;-76
2022/11/23 17:21:51;;;;;;;11.20;3.17;;;12.80;71.30;;;;;;4961554;28;20027;-76
2022/11/23 17:24:17;;;;;;;12.02;2.85;;;12.80;71.40;;;;;;4957327;28;20045;-77
2022/11/23 17:26:51;;;;;;;11.82;3.35;;;12.80;71.50;;;;;;4963266;28;20049;-77
2022/11/23 17:29:19;;;;;;;16.00;2.42;;;12.80;71.50;;;;;;4904240;28;20036;-77
2022/11/23 17:31:49;;;;;;;17.00;2.85;;;12.70;71.90;;;;;;4951622;28;20135;-78
2022/11/23 17:34:15;;;;;;;12.02;1.95;;;12.70;71.80;;;;;;4960738;28;20066;-77
2022/11/23 17:36:43;;;;;;;10.55;3.10;;;12.70;71.90;;;;;;4964880;28;20027;-77
2022/11/23 17:39:35;;;;;;;15.07;2.20;;;12.70;72.10;;;;;;4956903;28;20026;-77
2022/11/23 17:42:00;;;;;;;10.48;1.80;;;12.60;72.10;;;;;;4943330;29;20077;-77
2022/11/23 17:44:26;;;;;;;10.38;2.38;;;12.60;72.20;;;;;;4954599;29;20067;-77
2022/11/23 17:46:55;;;;;;;10.40;2.28;;;12.60;72.30;;;;;;4954706;28;20059;-77
2022/11/23 17:49:26;;;;;;;8.45;2.15;;;12.60;72.50;;;;;;4964319;28;20035;-77
2022/11/23 17:51:51;;;;;;;13.73;2.60;;;12.60;72.60;;;;;;4947411;28;20027;-77
2022/11/23 17:54:17;;;;;;;14.38;3.30;;;12.50;72.80;;;;;;4957213;29;20046;-77
2022/11/23 17:56:45;;;;;;;18.95;2.70;;;12.50;72.70;;;;;;4960070;28;20039;-77
2022/11/23 17:59:12;;;;;;;12.10;2.85;;;12.50;73.00;;;;;;4959825;28;20031;-78
2022/11/23 18:01:38;;;;;;;16.00;3.13;;;12.40;73.00;;;;;;4957011;28;20117;-77
2022/11/23 18:04:03;;;;;;;12.50;2.50;;;12.40;73.00;;;;;;4953213;28;20073;-77
2022/11/23 18:06:29;;;;;;;12.00;2.35;;;12.50;73.00;;;;;;4974715;28;20047;-77
2022/11/23 18:08:56;;;;;;;10.93;2.83;;;12.40;73.10;;;;;;4964035;28;20058;-78
2022/11/23 18:11:22;;;;;;;12.30;2.80;;;12.40;73.30;;;;;;4963174;28;20372;-78
2022/11/23 18:13:54;;;;;;;12.27;3.17;;;12.30;73.50;;;;;;4961905;28;20051;-77
2022/11/23 18:16:22;;;;;;;9.15;2.22;;;12.40;73.40;;;;;;4962545;28;20059;-75
2022/11/23 18:18:49;;;;;;;16.42;3.85;;;12.40;73.40;;;;;;4954777;28;20101;-75
2022/11/23 18:21:16;;;;;;;8.65;3.17;;;12.40;73.40;;;;;;4955819;28;20522;-75
2022/11/23 18:23:42;;;;;;;12.48;4.07;;;12.30;73.50;;;;;;4953163;28;20043;-75
2022/11/23 18:26:21;;;;;;;13.95;3.13;;;12.30;73.70;;;;;;4964551;28;20019;-75
2022/11/23 18:28:47;;;;;;;13.70;2.95;;;12.30;73.90;;;;;;4962739;28;20035;-76
2022/11/23 18:31:14;;;;;;;17.80;3.47;;;12.30;73.90;;;;;;4964954;28;20053;-75
2022/11/23 18:33:40;;;;;;;17.52;3.67;;;12.30;73.80;;;;;;4954318;28;20028;-75
2022/11/23 18:36:05;;;;;;;15.23;3.60;;;12.30;73.90;;;;;;4956222;28;20023;-75
2022/11/23 18:38:32;;;;;;;13.15;2.92;;;12.30;73.70;;;;;;4954099;28;20095;-76
2022/11/23 18:40:58;;;;;;;15.15;3.47;;;12.30;73.80;;;;;;4964556;28;20038;-76